createdAt,value
2019-04-01T00:01:02.729Z,39.83
2019-04-01T00:03:33.517Z,39.53
2019-04-01T00:06:04.471Z,36.97
2019-04-01T00:08:35.339Z,37.80
2019-04-01T00:11:06.239Z,40.93
2019-04-01T00:13:37.086Z,38.07
2019-04-01T00:16:09.555Z,38.77
2019-04-01T00:18:40.420Z,39.77
2019-04-01T00:21:11.269Z,41.23
2019-04-01T00:23:42.165Z,39.40
2019-04-01T00:26:13.085Z,42.73
2019-04-01T00:28:44.077Z,38.73
2019-04-01T00:31:14.939Z,38.33
2019-04-01T00:33:46.083Z,39.67
2019-04-01T00:36:16.935Z,38.97
2019-04-01T00:38:47.805Z,39.70
2019-04-01T00:41:18.727Z,41.10
2019-04-01T00:43:57.460Z,40.03
2019-04-01T00:46:32.253Z,39.07
2019-04-01T00:49:03.216Z,39.37
2019-04-01T00:51:34.290Z,40.30
2019-04-01T00:54:05.426Z,43.30
2019-04-01T00:56:36.289Z,36.83
2019-04-01T00:59:07.293Z,42.47
2019-04-01T01:01:38.212Z,36.30
2019-04-01T01:04:09.169Z,39.93
2019-04-01T01:06:40.113Z,37.83
2019-04-01T01:09:11.059Z,41.70
2019-04-01T01:11:43.715Z,38.40
2019-04-01T01:14:16.116Z,40.13
2019-04-01T01:16:47.057Z,40.57
2019-04-01T01:19:18.225Z,36.80
2019-04-01T01:21:49.109Z,38.07
2019-04-01T01:24:21.694Z,39.10
2019-04-01T01:26:52.611Z,37.73
2019-04-01T01:29:27.940Z,39.20
2019-04-01T01:31:58.989Z,38.87
2019-04-01T01:34:29.875Z,41.17
2019-04-01T01:37:00.933Z,40.20
2019-04-01T01:39:31.860Z,39.20
2019-04-01T01:42:02.833Z,38.63
2019-04-01T01:44:33.794Z,37.40
2019-04-01T01:47:08.872Z,39.43
2019-04-01T01:49:39.864Z,39.97
2019-04-01T01:52:10.884Z,41.23
2019-04-01T01:54:41.844Z,40.70
2019-04-01T01:57:14.516Z,39.27
2019-04-01T01:59:45.433Z,36.47
2019-04-01T02:02:16.438Z,41.90
2019-04-01T02:04:47.424Z,40.47
2019-04-01T02:07:18.354Z,39.97
2019-04-01T02:09:49.396Z,42.87
2019-04-01T02:12:20.362Z,41.63
2019-04-01T02:14:54.270Z,39.90
2019-04-01T02:17:28.662Z,41.10
2019-04-01T02:20:03.811Z,39.20
2019-04-01T02:22:34.732Z,43.60
2019-04-01T02:25:06.144Z,40.90
2019-04-01T02:27:37.280Z,39.33
2019-04-01T02:30:08.486Z,35.60
2019-04-01T02:32:39.333Z,41.47
2019-04-01T02:35:10.382Z,39.73
2019-04-01T02:37:41.352Z,41.03
2019-04-01T02:40:12.858Z,39.27
2019-04-01T02:42:43.898Z,39.27
2019-04-01T02:45:17.814Z,37.97
2019-04-01T02:47:48.675Z,38.37
2019-04-01T02:50:19.683Z,37.37
2019-04-01T02:52:54.711Z,36.43
2019-04-01T02:55:25.595Z,37.07
2019-04-01T02:57:56.440Z,37.90
2019-04-01T03:00:27.418Z,36.27
2019-04-01T03:02:58.489Z,36.77
2019-04-01T03:05:29.381Z,35.30
2019-04-01T03:08:00.387Z,38.20
2019-04-01T03:10:31.298Z,36.63
2019-04-01T03:13:02.259Z,35.73
2019-04-01T03:15:33.287Z,38.97
2019-04-01T03:18:04.257Z,39.13
2019-04-01T03:20:35.325Z,34.13
2019-04-01T03:23:06.260Z,33.90
2019-04-01T03:25:37.149Z,37.03
2019-04-01T03:28:09.258Z,34.40
2019-04-01T03:30:42.919Z,34.70
2019-04-01T03:33:12.981Z,35.00
2019-04-01T03:35:43.958Z,35.80
2019-04-01T03:38:16.254Z,33.60
2019-04-01T03:40:47.153Z,32.97
2019-04-01T03:43:32.395Z,33.93
2019-04-01T03:46:12.699Z,34.37
2019-04-01T03:48:46.603Z,35.20
2019-04-01T03:51:17.573Z,31.03
2019-04-01T03:53:48.485Z,32.83
2019-04-01T03:56:19.534Z,35.40
2019-04-01T03:58:53.697Z,36.23
2019-04-01T04:01:24.706Z,33.03
2019-04-01T04:03:55.860Z,33.83
2019-04-01T04:06:26.875Z,31.33
2019-04-01T04:09:01.559Z,28.57
2019-04-01T04:11:30.438Z,31.57
2019-04-01T04:14:01.454Z,33.77
2019-04-01T04:16:32.551Z,32.13
2019-04-01T04:19:03.681Z,42.27
2019-04-01T04:21:35.575Z,34.23
2019-04-01T04:24:06.508Z,29.77
2019-04-01T04:26:38.490Z,30.40
2019-04-01T04:29:09.421Z,34.80
2019-04-01T04:31:40.282Z,28.30
2019-04-01T04:34:12.768Z,28.07
2019-04-01T04:36:43.713Z,26.90
2019-04-01T04:39:17.393Z,31.43
2019-04-01T04:41:48.327Z,28.40
2019-04-01T04:44:19.473Z,32.90
2019-04-01T04:46:50.419Z,24.97
2019-04-01T04:49:21.777Z,26.80
2019-04-01T04:51:52.776Z,29.23
2019-04-01T04:54:23.773Z,27.13
2019-04-01T04:56:56.196Z,27.57
2019-04-01T04:59:27.473Z,25.23
2019-04-01T05:02:00.011Z,26.13
2019-04-01T05:04:31.103Z,24.13
2019-04-01T05:07:02.042Z,24.50
2019-04-01T05:09:34.972Z,26.57
2019-04-01T05:12:06.005Z,26.70
2019-04-01T05:14:36.968Z,24.50
2019-04-01T05:17:08.011Z,23.50
2019-04-01T05:19:39.117Z,21.73
2019-04-01T05:22:10.695Z,26.47
2019-04-01T05:24:42.381Z,21.87
2019-04-01T05:27:15.264Z,24.87
2019-04-01T05:29:47.446Z,26.63
2019-04-01T05:32:23.174Z,23.63
2019-04-01T05:34:58.013Z,25.43
2019-04-01T05:37:29.014Z,23.50
2019-04-01T05:40:00.031Z,24.77
2019-04-01T05:42:31.072Z,20.43
2019-04-01T05:45:01.952Z,23.27
2019-04-01T05:47:37.169Z,18.73
2019-04-01T05:50:08.154Z,21.17
2019-04-01T05:52:39.148Z,20.20
2019-04-01T05:55:10.141Z,20.63
2019-04-01T05:57:41.400Z,22.27
2019-04-01T06:00:15.256Z,21.00
2019-04-01T06:02:47.061Z,20.87
2019-04-01T06:05:17.989Z,24.83
2019-04-01T06:07:48.902Z,21.40
2019-04-01T06:10:19.853Z,20.27
2019-04-01T06:12:50.792Z,18.27
2019-04-01T06:15:21.788Z,21.13
2019-04-01T06:17:52.786Z,22.40
2019-04-01T06:20:23.703Z,19.57
2019-04-01T06:22:54.546Z,19.27
2019-04-01T06:25:25.525Z,15.70
2019-04-01T06:27:56.454Z,20.57
2019-04-01T06:30:29.090Z,19.13
2019-04-01T06:33:00.180Z,18.20
2019-04-01T06:35:31.130Z,16.17
2019-04-01T06:38:02.065Z,16.73
2019-04-01T06:40:33.503Z,18.20
2019-04-01T06:43:04.467Z,17.17
2019-04-01T06:45:35.627Z,22.50
2019-04-01T06:48:06.597Z,15.33
2019-04-01T06:50:37.558Z,14.20
2019-04-01T06:53:08.543Z,15.80
2019-04-01T06:55:39.516Z,17.30
2019-04-01T06:58:12.115Z,18.37
2019-04-01T07:00:43.352Z,16.20
2019-04-01T07:03:14.417Z,13.43
2019-04-01T07:05:45.436Z,19.90
2019-04-01T07:08:16.396Z,19.73
2019-04-01T07:10:47.904Z,14.07
2019-04-01T07:13:19.065Z,12.80
2019-04-01T07:15:50.007Z,14.10
2019-04-01T07:18:20.850Z,14.40
2019-04-01T07:20:51.919Z,13.27
2019-04-01T07:23:22.897Z,14.00
2019-04-01T07:25:53.887Z,13.20
2019-04-01T07:28:24.793Z,16.37
2019-04-01T07:30:55.736Z,12.77
2019-04-01T07:33:26.669Z,15.50
2019-04-01T07:35:57.697Z,12.47
2019-04-01T07:38:28.607Z,15.10
2019-04-01T07:40:59.918Z,12.10
2019-04-01T07:43:30.933Z,12.67
2019-04-01T07:46:01.863Z,14.77
2019-04-01T07:48:32.746Z,12.87
2019-04-01T07:51:06.895Z,11.43
2019-04-01T07:53:36.248Z,12.90
2019-04-01T07:56:07.195Z,14.73
2019-04-01T07:58:38.273Z,12.83
2019-04-01T08:01:09.146Z,12.97
2019-04-01T08:03:41.942Z,12.07
2019-04-01T08:06:13.275Z,10.37
2019-04-01T08:08:46.270Z,11.13
2019-04-01T08:11:16.765Z,9.77
2019-04-01T08:13:47.676Z,12.00
2019-04-01T08:16:18.699Z,10.40
2019-04-01T08:18:49.647Z,11.67
2019-04-01T08:21:20.779Z,13.13
2019-04-01T08:23:51.800Z,15.00
2019-04-01T08:26:22.639Z,12.43
2019-04-01T08:28:53.528Z,9.90
2019-04-01T08:31:24.369Z,9.50
2019-04-01T08:33:55.335Z,10.97
2019-04-01T08:36:26.357Z,9.00
2019-04-01T08:38:57.365Z,9.57
2019-04-01T08:41:28.255Z,10.47
2019-04-01T08:44:07.753Z,12.37
2019-04-01T08:46:41.349Z,10.37
2019-04-01T08:49:20.736Z,9.27
2019-04-01T08:51:56.203Z,10.50
2019-04-01T08:54:28.659Z,8.93
2019-04-01T08:57:13.671Z,25.63
2019-04-01T09:00:15.981Z,10.57
2019-04-01T09:03:23.295Z,25.97
2019-04-01T09:05:50.827Z,10.07
2019-04-01T09:08:33.965Z,11.03
2019-04-01T09:11:28.279Z,9.70
2019-04-01T09:14:10.713Z,10.70
2019-04-01T09:16:50.934Z,11.00
2019-04-01T09:19:31.002Z,13.90
2019-04-01T09:22:13.319Z,11.83
2019-04-01T09:25:04.221Z,16.80
2019-04-01T09:27:42.260Z,9.63
2019-04-01T09:30:18.655Z,10.37
2019-04-01T09:32:57.633Z,11.37
2019-04-01T09:35:45.756Z,14.30
2019-04-01T09:38:34.484Z,11.73
2019-04-01T09:41:41.149Z,10.30
2019-04-01T09:44:36.157Z,13.93
2019-04-01T09:47:32.173Z,13.97
2019-04-01T09:50:03.079Z,11.20
2019-04-01T09:52:41.447Z,10.43
2019-04-01T09:55:18.539Z,11.63
2019-04-01T09:57:55.421Z,10.03
2019-04-01T10:00:27.768Z,13.60
2019-04-01T10:03:14.847Z,10.30
2019-04-01T10:07:02.353Z,10.37
2019-04-01T10:12:02.753Z,11.87
2019-04-01T10:16:51.765Z,9.90
2019-04-01T10:18:34.718Z,14.23
2019-04-01T10:21:09.721Z,10.53
2019-04-01T10:23:40.782Z,11.73
2019-04-01T10:26:17.330Z,11.93
2019-04-01T10:28:49.902Z,11.07
2019-04-01T10:31:20.901Z,11.17
2019-04-01T10:33:54.816Z,12.77
2019-04-01T10:36:25.688Z,11.33
2019-04-01T10:38:58.165Z,11.47
2019-04-01T10:41:29.003Z,11.87
2019-04-01T10:44:04.712Z,11.53
2019-04-01T10:46:36.427Z,10.73
2019-04-01T10:49:10.046Z,11.93
2019-04-01T10:51:41.159Z,14.30
2019-04-01T10:57:58.921Z,12.40
2019-04-01T11:00:52.483Z,12.50
2019-04-01T11:03:34.968Z,12.60
2019-04-01T11:09:19.184Z,13.30
2019-04-01T11:21:42.790Z,12.40
2019-04-01T11:24:29.358Z,13.50
2019-04-01T11:27:08.902Z,12.67
2019-04-01T11:30:13.412Z,12.70
2019-04-01T11:32:42.818Z,12.27
2019-04-01T11:35:27.027Z,14.50
2019-04-01T11:41:08.053Z,11.37
2019-04-01T11:44:59.256Z,14.73
2019-04-01T11:46:39.250Z,12.07
2019-04-01T11:49:11.827Z,11.43
2019-04-01T11:51:44.922Z,12.83
2019-04-01T11:54:18.141Z,12.67
2019-04-01T11:56:49.341Z,12.50
2019-04-01T11:59:20.481Z,12.47
2019-04-01T12:01:51.403Z,12.00
2019-04-01T12:04:22.251Z,12.53
2019-04-01T12:06:53.213Z,11.40
2019-04-01T12:09:24.312Z,12.77
2019-04-01T12:11:55.687Z,11.83
2019-04-01T12:14:28.942Z,11.73
2019-04-01T12:17:00.121Z,15.03
2019-04-01T12:19:35.219Z,11.77
2019-04-01T12:22:06.149Z,10.93
2019-04-01T12:24:37.493Z,11.23
2019-04-01T12:27:09.411Z,11.23
2019-04-01T12:29:43.052Z,11.47
2019-04-01T12:32:14.065Z,13.90
2019-04-01T12:34:46.664Z,11.27
2019-04-01T12:37:20.587Z,10.40
2019-04-01T12:39:51.733Z,12.67
2019-04-01T12:42:23.497Z,11.50
2019-04-01T12:44:55.385Z,11.10
2019-04-01T12:47:26.613Z,10.82
2019-04-01T12:49:57.633Z,11.63
2019-04-01T12:52:28.579Z,11.22
2019-04-01T12:55:01.112Z,12.67
2019-04-01T12:57:32.209Z,11.63
2019-04-01T13:00:03.806Z,13.25
2019-04-01T13:02:34.798Z,12.88
2019-04-01T13:05:06.977Z,13.55
2019-04-01T13:07:38.008Z,11.45
2019-04-01T13:10:09.363Z,12.37
2019-04-01T13:12:42.451Z,11.43
2019-04-01T13:15:15.128Z,12.05
2019-04-01T13:17:46.256Z,11.65
2019-04-01T13:20:17.229Z,12.93
2019-04-01T13:22:48.240Z,13.25
2019-04-01T13:25:19.401Z,12.95
2019-04-01T13:27:50.298Z,12.40
2019-04-01T13:30:24.086Z,15.43
2019-04-01T13:32:54.086Z,12.07
2019-04-01T13:35:25.000Z,11.40
2019-04-01T13:37:55.988Z,11.38
2019-04-01T13:40:26.861Z,13.03
2019-04-01T13:42:57.850Z,11.33
2019-04-01T13:45:31.695Z,12.53
2019-04-01T13:48:01.367Z,12.80
2019-04-01T13:50:32.661Z,11.67
2019-04-01T13:53:03.796Z,12.30
2019-04-01T13:55:38.288Z,13.33
2019-04-01T13:58:12.451Z,12.20
2019-04-01T14:00:43.440Z,12.70
2019-04-01T14:03:14.409Z,13.97
2019-04-01T14:05:49.592Z,12.33
2019-04-01T14:08:21.459Z,13.83
2019-04-01T14:10:54.442Z,13.87
2019-04-01T14:13:25.426Z,14.43
2019-04-01T14:15:56.292Z,14.47
2019-04-01T14:18:27.170Z,14.93
2019-04-01T14:20:58.131Z,14.03
2019-04-01T14:23:29.000Z,18.50
2019-04-01T14:26:00.639Z,17.00
2019-04-01T14:28:31.512Z,18.10
2019-04-01T14:31:02.404Z,14.00
2019-04-01T14:33:34.534Z,14.03
2019-04-01T14:36:05.630Z,16.33
2019-04-01T14:38:36.725Z,16.77
2019-04-01T14:41:07.614Z,16.67
2019-04-01T14:43:40.169Z,14.03
2019-04-01T14:46:11.238Z,14.73
2019-04-01T14:48:42.261Z,15.17
2019-04-01T14:51:13.131Z,15.10
2019-04-01T14:53:44.106Z,17.87
2019-04-01T14:56:15.012Z,14.27
2019-04-01T14:58:57.216Z,17.17
2019-04-01T15:01:28.054Z,14.83
2019-04-01T15:03:59.084Z,16.60
2019-04-01T15:06:30.277Z,14.83
2019-04-01T15:13:06.167Z,25.87
2019-04-01T15:15:38.148Z,14.87
2019-04-01T15:18:20.753Z,13.57
2019-04-01T15:20:57.199Z,14.27
2019-04-01T15:23:30.089Z,14.33
2019-04-01T15:26:05.604Z,14.37
2019-04-01T15:28:45.035Z,15.63
2019-04-01T15:31:54.112Z,13.67
2019-04-01T15:34:17.544Z,13.77
2019-04-01T15:40:26.232Z,14.13
2019-04-01T15:43:12.463Z,14.87
2019-04-01T15:46:03.918Z,14.57
2019-04-01T15:48:33.734Z,14.33
2019-04-01T15:51:17.528Z,13.47
2019-04-01T15:54:08.668Z,15.63
2019-04-01T15:56:42.000Z,14.97
2019-04-01T15:59:27.595Z,14.17
2019-04-01T16:02:01.590Z,13.30
2019-04-01T16:04:53.295Z,12.97
2019-04-01T16:07:35.456Z,13.93
2019-04-01T16:10:09.970Z,13.13
2019-04-01T16:12:45.322Z,13.57
2019-04-01T16:15:19.532Z,13.67
2019-04-01T16:17:53.874Z,15.60
2019-04-01T16:20:26.979Z,14.20
2019-04-01T16:23:05.057Z,14.20
2019-04-01T16:25:41.126Z,26.87
2019-04-01T16:28:20.352Z,13.93
2019-04-01T16:30:51.424Z,14.00
2019-04-01T16:33:29.937Z,13.87
2019-04-01T16:36:18.775Z,13.83
2019-04-01T16:38:56.353Z,14.70
2019-04-01T16:41:27.599Z,13.83
2019-04-01T16:44:04.581Z,15.27
2019-04-01T16:46:37.250Z,13.63
2019-04-01T16:49:11.547Z,15.77
2019-04-01T16:51:42.386Z,13.70
2019-04-01T16:54:13.829Z,14.37
2019-04-01T16:57:06.323Z,14.43
2019-04-01T16:59:48.985Z,13.97
2019-04-01T17:02:52.378Z,13.47
2019-04-01T17:08:41.475Z,13.97
2019-04-01T17:18:01.011Z,14.27
2019-04-01T17:20:31.983Z,14.57
2019-04-01T17:23:03.017Z,14.43
2019-04-01T17:25:34.097Z,14.47
2019-04-01T17:28:05.101Z,13.27
2019-04-01T17:30:35.990Z,15.33
2019-04-01T17:33:10.182Z,15.27
2019-04-01T17:35:42.030Z,13.27
2019-04-01T17:38:13.923Z,15.23
2019-04-01T17:40:44.869Z,14.67
2019-04-01T17:43:17.371Z,13.67
2019-04-01T17:45:48.554Z,13.63
2019-04-01T17:48:22.847Z,14.20
2019-04-01T17:50:55.235Z,12.40
2019-04-01T17:53:26.135Z,15.43
2019-04-01T17:55:58.475Z,13.93
2019-04-01T17:58:29.430Z,11.20
2019-04-01T18:01:01.815Z,13.80
2019-04-01T18:03:37.439Z,12.37
2019-04-01T18:06:08.523Z,11.97
2019-04-01T18:08:55.427Z,11.70
2019-04-01T18:11:35.457Z,11.57
2019-04-01T18:14:09.217Z,13.57
2019-04-01T18:16:43.076Z,10.90
2019-04-01T18:19:14.571Z,14.40
2019-04-01T18:21:50.939Z,13.07
2019-04-01T18:28:08.295Z,12.27
2019-04-01T18:31:13.326Z,14.10
2019-04-01T18:33:56.420Z,11.90
2019-04-01T18:36:34.611Z,13.80
2019-04-01T18:39:47.897Z,15.37
2019-04-01T18:42:11.014Z,12.70
2019-04-01T18:44:50.817Z,12.77
2019-04-01T18:47:25.577Z,12.27
2019-04-01T18:50:20.882Z,11.53
2019-04-01T18:56:07.747Z,12.90
2019-04-01T18:58:40.580Z,12.47
2019-04-01T19:01:44.218Z,13.57
2019-04-01T19:04:20.726Z,12.27
2019-04-01T19:06:56.298Z,12.20
2019-04-01T19:09:32.684Z,12.40
2019-04-01T19:12:06.870Z,13.20
2019-04-01T19:14:40.955Z,10.80
2019-04-01T19:17:15.362Z,12.50
2019-04-01T19:20:00.641Z,10.87
2019-04-01T19:28:08.503Z,14.77
2019-04-01T19:34:48.938Z,12.17
2019-04-01T19:37:22.619Z,13.77
2019-04-01T19:40:24.746Z,11.90
2019-04-01T19:43:03.791Z,12.13
2019-04-01T19:46:10.556Z,13.47
2019-04-01T19:51:50.051Z,11.30
2019-04-01T19:54:29.253Z,12.70
2019-04-01T19:56:53.796Z,14.80
2019-04-01T19:59:26.058Z,12.57
2019-04-01T20:01:58.194Z,12.30
2019-04-01T20:04:32.213Z,14.93
2019-04-01T20:07:08.180Z,14.37
2019-04-01T20:09:40.678Z,11.93
2019-04-01T20:12:13.222Z,13.10
2019-04-01T20:14:44.241Z,15.43
2019-04-01T20:17:15.249Z,12.30
2019-04-01T20:19:47.901Z,11.30
2019-04-01T20:22:25.183Z,10.63
2019-04-01T20:28:00.946Z,13.23
2019-04-01T20:30:42.633Z,14.33
2019-04-01T20:33:31.810Z,11.10
2019-04-01T20:36:04.798Z,13.33
2019-04-01T20:38:35.854Z,11.07
2019-04-01T20:41:07.010Z,11.23
2019-04-01T20:43:37.971Z,16.43
2019-04-01T20:46:08.863Z,13.47
2019-04-01T20:48:41.490Z,14.27
2019-04-01T20:51:12.442Z,14.00
2019-04-01T20:53:47.179Z,13.47
2019-04-01T20:56:21.137Z,14.80
2019-04-01T20:58:52.252Z,15.30
2019-04-01T21:01:23.514Z,13.50
2019-04-01T21:03:54.534Z,16.13
2019-04-01T21:06:29.507Z,13.23
2019-04-01T21:09:02.163Z,13.50
2019-04-01T21:11:36.409Z,11.53
2019-04-01T21:14:07.415Z,11.63
2019-04-01T21:16:56.394Z,11.97
2019-04-01T21:19:31.542Z,15.53
2019-04-01T21:22:19.068Z,13.93
2019-04-01T21:24:50.005Z,15.30
2019-04-01T21:27:20.955Z,13.43
2019-04-01T21:29:54.055Z,11.63
2019-04-01T21:32:25.215Z,11.20
2019-04-01T21:34:56.260Z,14.23
2019-04-01T21:37:27.468Z,11.67
2019-04-01T21:39:59.228Z,12.43
2019-04-01T21:42:30.986Z,14.80
2019-04-01T21:45:02.249Z,12.90
2019-04-01T21:47:33.339Z,11.27
2019-04-01T21:50:10.387Z,8.83
2019-04-01T21:52:41.590Z,10.80
2019-04-01T21:55:13.054Z,12.80
2019-04-01T21:57:43.985Z,13.10
2019-04-01T22:00:18.120Z,10.03
2019-04-01T22:02:49.336Z,12.17
2019-04-01T22:05:20.261Z,12.80
2019-04-01T22:07:51.105Z,14.97
2019-04-01T22:10:22.109Z,11.17
2019-04-01T22:12:52.979Z,11.57
2019-04-01T22:15:32.771Z,11.33
2019-04-01T22:18:06.555Z,9.70
2019-04-01T22:20:38.981Z,11.80
2019-04-01T22:23:10.045Z,11.47
2019-04-01T22:25:40.912Z,13.03
2019-04-01T22:28:11.754Z,11.43
2019-04-01T22:30:42.711Z,10.87
2019-04-01T22:33:13.630Z,10.00
2019-04-01T22:35:44.519Z,12.53
2019-04-01T22:38:24.649Z,10.10
2019-04-01T22:40:48.192Z,9.73
2019-04-01T22:43:19.035Z,9.77
2019-04-01T22:45:49.924Z,11.80
2019-04-01T22:48:20.754Z,12.10
2019-04-01T22:50:51.698Z,11.33
2019-04-01T22:53:22.583Z,11.63
2019-04-01T22:55:53.491Z,11.70
2019-04-01T22:58:24.380Z,13.60
2019-04-01T23:00:55.288Z,9.67
2019-04-01T23:03:26.140Z,11.03
2019-04-01T23:05:56.982Z,13.03
2019-04-01T23:08:27.831Z,11.97
2019-04-01T23:10:58.688Z,12.07
2019-04-01T23:13:29.604Z,13.17
2019-04-01T23:16:00.414Z,9.97
2019-04-01T23:18:31.294Z,11.20
2019-04-01T23:21:02.541Z,11.63
2019-04-01T23:26:25.315Z,9.30
2019-04-01T23:28:57.172Z,12.93
2019-04-01T23:31:28.116Z,10.23
2019-04-01T23:33:59.087Z,11.47
2019-04-01T23:36:30.124Z,9.13
2019-04-01T23:39:01.016Z,10.13
2019-04-01T23:41:31.840Z,9.97
2019-04-01T23:44:02.755Z,10.53
2019-04-01T23:46:33.604Z,10.40
2019-04-01T23:49:04.440Z,9.87
2019-04-01T23:51:36.204Z,7.97
2019-04-01T23:54:07.424Z,8.97
2019-04-01T23:56:38.360Z,9.20
2019-04-01T23:59:09.227Z,9.87
